sensor_id;sensor_type;location;lat;lon;timestamp;temperature;humidity
27540;DHT22;15906;52.046;4.724;2023-12-04T00:00:01;1.50;99.90
27540;DHT22;15906;52.046;4.724;2023-12-04T00:02:26;1.50;99.90
27540;DHT22;15906;52.046;4.724;2023-12-04T00:04:52;1.50;99.90
27540;DHT22;15906;52.046;4.724;2023-12-04T00:07:17;1.60;99.90
27540;DHT22;15906;52.046;4.724;2023-12-04T00:09:43;1.60;99.90
27540;DHT22;15906;52.046;4.724;2023-12-04T00:12:08;1.70;99.90
27540;DHT22;15906;52.046;4.724;2023-12-04T00:14:34;1.60;99.90
27540;DHT22;15906;52.046;4.724;2023-12-04T00:16:59;1.60;99.90
27540;DHT22;15906;52.046;4.724;2023-12-04T00:19:25;1.50;99.90
27540;DHT22;15906;52.046;4.724;2023-12-04T00:21:51;1.50;99.90
27540;DHT22;15906;52.046;4.724;2023-12-04T00:24:16;1.60;99.90
27540;DHT22;15906;52.046;4.724;2023-12-04T00:26:42;1.50;99.90
27540;DHT22;15906;52.046;4.724;2023-12-04T00:29:07;1.60;99.90
27540;DHT22;15906;52.046;4.724;2023-12-04T00:31:33;1.50;99.90
27540;DHT22;15906;52.046;4.724;2023-12-04T00:33:58;1.50;99.90
27540;DHT22;15906;52.046;4.724;2023-12-04T00:36:24;1.50;99.90
27540;DHT22;15906;52.046;4.724;2023-12-04T00:38:49;1.50;99.90
27540;DHT22;15906;52.046;4.724;2023-12-04T00:41:15;1.50;99.90
27540;DHT22;15906;52.046;4.724;2023-12-04T00:43:40;1.50;99.90
27540;DHT22;15906;52.046;4.724;2023-12-04T00:46:06;1.50;99.90
27540;DHT22;15906;52.046;4.724;2023-12-04T00:48:32;1.60;99.90
27540;DHT22;15906;52.046;4.724;2023-12-04T00:50:58;1.50;99.90
27540;DHT22;15906;52.046;4.724;2023-12-04T00:53:23;1.50;99.90
27540;DHT22;15906;52.046;4.724;2023-12-04T00:55:49;1.50;99.90
27540;DHT22;15906;52.046;4.724;2023-12-04T00:58:15;1.40;99.90
27540;DHT22;15906;52.046;4.724;2023-12-04T01:00:40;1.50;99.90
27540;DHT22;15906;52.046;4.724;2023-12-04T01:03:06;1.40;99.90
27540;DHT22;15906;52.046;4.724;2023-12-04T01:05:31;1.40;99.90
27540;DHT22;15906;52.046;4.724;2023-12-04T01:07:57;1.40;99.90
27540;DHT22;15906;52.046;4.724;2023-12-04T01:10:22;1.40;99.90
27540;DHT22;15906;52.046;4.724;2023-12-04T01:12:48;1.40;99.90
27540;DHT22;15906;52.046;4.724;2023-12-04T01:15:14;1.30;99.90
27540;DHT22;15906;52.046;4.724;2023-12-04T01:17:39;1.40;99.90
27540;DHT22;15906;52.046;4.724;2023-12-04T01:20:06;1.40;99.90
27540;DHT22;15906;52.046;4.724;2023-12-04T01:22:32;1.40;99.90
27540;DHT22;15906;52.046;4.724;2023-12-04T01:24:57;1.40;99.90
27540;DHT22;15906;52.046;4.724;2023-12-04T01:27:23;1.40;99.90
27540;DHT22;15906;52.046;4.724;2023-12-04T01:29:48;1.50;99.90
27540;DHT22;15906;52.046;4.724;2023-12-04T01:32:14;1.50;99.90
27540;DHT22;15906;52.046;4.724;2023-12-04T01:34:40;1.50;99.90
27540;DHT22;15906;52.046;4.724;2023-12-04T01:37:05;1.50;99.90
27540;DHT22;15906;52.046;4.724;2023-12-04T01:39:31;1.40;99.90
27540;DHT22;15906;52.046;4.724;2023-12-04T01:41:57;1.50;99.90
27540;DHT22;15906;52.046;4.724;2023-12-04T01:44:24;1.50;99.90
27540;DHT22;15906;52.046;4.724;2023-12-04T01:46:49;1.40;99.90
27540;DHT22;15906;52.046;4.724;2023-12-04T01:49:15;1.40;99.90
27540;DHT22;15906;52.046;4.724;2023-12-04T01:51:42;1.40;99.90
27540;DHT22;15906;52.046;4.724;2023-12-04T01:54:08;1.40;99.90
27540;DHT22;15906;52.046;4.724;2023-12-04T01:56:34;1.40;99.90
27540;DHT22;15906;52.046;4.724;2023-12-04T01:59:01;1.40;99.90
27540;DHT22;15906;52.046;4.724;2023-12-04T02:01:27;1.50;99.90
27540;DHT22;15906;52.046;4.724;2023-12-04T02:03:54;1.40;99.90
27540;DHT22;15906;52.046;4.724;2023-12-04T02:06:20;1.50;99.90
27540;DHT22;15906;52.046;4.724;2023-12-04T02:08:47;1.40;99.90
27540;DHT22;15906;52.046;4.724;2023-12-04T02:11:12;1.40;99.90
27540;DHT22;15906;52.046;4.724;2023-12-04T02:13:38;1.40;99.90
27540;DHT22;15906;52.046;4.724;2023-12-04T02:16:05;1.50;99.90
27540;DHT22;15906;52.046;4.724;2023-12-04T02:18:34;1.60;99.90
27540;DHT22;15906;52.046;4.724;2023-12-04T02:21:01;1.50;99.90
27540;DHT22;15906;52.046;4.724;2023-12-04T02:23:27;1.50;99.90
27540;DHT22;15906;52.046;4.724;2023-12-04T02:26:03;1.50;99.90
27540;DHT22;15906;52.046;4.724;2023-12-04T02:28:33;1.50;99.90
27540;DHT22;15906;52.046;4.724;2023-12-04T02:31:00;1.50;99.90
27540;DHT22;15906;52.046;4.724;2023-12-04T02:33:26;1.50;99.90
27540;DHT22;15906;52.046;4.724;2023-12-04T02:35:53;1.60;99.90
27540;DHT22;15906;52.046;4.724;2023-12-04T02:38:21;1.60;99.90
27540;DHT22;15906;52.046;4.724;2023-12-04T02:40:46;1.60;99.90
27540;DHT22;15906;52.046;4.724;2023-12-04T02:43:12;1.60;99.90
27540;DHT22;15906;52.046;4.724;2023-12-04T02:45:37;1.60;99.90
27540;DHT22;15906;52.046;4.724;2023-12-04T02:48:03;1.60;99.90
27540;DHT22;15906;52.046;4.724;2023-12-04T02:50:29;1.50;99.90
27540;DHT22;15906;52.046;4.724;2023-12-04T02:52:54;1.60;99.90
27540;DHT22;15906;52.046;4.724;2023-12-04T02:55:20;1.60;99.90
27540;DHT22;15906;52.046;4.724;2023-12-04T02:57:45;1.60;99.90
27540;DHT22;15906;52.046;4.724;2023-12-04T03:00:11;1.60;99.90
27540;DHT22;15906;52.046;4.724;2023-12-04T03:02:37;1.50;99.90
27540;DHT22;15906;52.046;4.724;2023-12-04T03:05:02;1.60;99.90
27540;DHT22;15906;52.046;4.724;2023-12-04T03:07:28;1.50;99.90
27540;DHT22;15906;52.046;4.724;2023-12-04T03:09:54;1.50;99.90
27540;DHT22;15906;52.046;4.724;2023-12-04T03:12:19;1.50;99.90
27540;DHT22;15906;52.046;4.724;2023-12-04T03:14:45;1.50;99.90
27540;DHT22;15906;52.046;4.724;2023-12-04T03:17:10;1.50;99.90
27540;DHT22;15906;52.046;4.724;2023-12-04T03:19:36;1.50;99.90
27540;DHT22;15906;52.046;4.724;2023-12-04T03:22:02;1.60;99.90
27540;DHT22;15906;52.046;4.724;2023-12-04T03:24:27;1.60;99.90
27540;DHT22;15906;52.046;4.724;2023-12-04T03:26:54;1.50;99.90
27540;DHT22;15906;52.046;4.724;2023-12-04T03:29:19;1.60;99.90
27540;DHT22;15906;52.046;4.724;2023-12-04T03:31:45;1.60;99.90
27540;DHT22;15906;52.046;4.724;2023-12-04T03:34:10;1.60;99.90
27540;DHT22;15906;52.046;4.724;2023-12-04T03:36:36;1.60;99.90
27540;DHT22;15906;52.046;4.724;2023-12-04T03:39:01;1.60;99.90
27540;DHT22;15906;52.046;4.724;2023-12-04T03:41:28;1.60;99.90
27540;DHT22;15906;52.046;4.724;2023-12-04T03:43:53;1.50;99.90
27540;DHT22;15906;52.046;4.724;2023-12-04T03:46:19;1.50;99.90
27540;DHT22;15906;52.046;4.724;2023-12-04T03:48:45;1.60;99.90
27540;DHT22;15906;52.046;4.724;2023-12-04T03:51:10;1.50;99.90
27540;DHT22;15906;52.046;4.724;2023-12-04T03:53:36;1.50;99.90
27540;DHT22;15906;52.046;4.724;2023-12-04T03:56:02;1.50;99.90
27540;DHT22;15906;52.046;4.724;2023-12-04T03:58:27;1.50;99.90
27540;DHT22;15906;52.046;4.724;2023-12-04T04:00:53;1.50;99.90
27540;DHT22;15906;52.046;4.724;2023-12-04T04:03:18;1.50;99.90
27540;DHT22;15906;52.046;4.724;2023-12-04T04:05:44;1.50;99.90
27540;DHT22;15906;52.046;4.724;2023-12-04T04:08:09;1.50;99.90
27540;DHT22;15906;52.046;4.724;2023-12-04T04:10:35;1.50;99.90
27540;DHT22;15906;52.046;4.724;2023-12-04T04:13:00;1.60;99.90
27540;DHT22;15906;52.046;4.724;2023-12-04T04:15:26;1.60;99.90
27540;DHT22;15906;52.046;4.724;2023-12-04T04:17:52;1.60;99.90
27540;DHT22;15906;52.046;4.724;2023-12-04T04:20:17;1.60;99.90
27540;DHT22;15906;52.046;4.724;2023-12-04T04:22:43;1.60;99.90
27540;DHT22;15906;52.046;4.724;2023-12-04T04:25:09;1.60;99.90
27540;DHT22;15906;52.046;4.724;2023-12-04T04:27:36;1.60;99.90
27540;DHT22;15906;52.046;4.724;2023-12-04T04:30:02;1.60;99.90
27540;DHT22;15906;52.046;4.724;2023-12-04T04:32:28;1.60;99.90
27540;DHT22;15906;52.046;4.724;2023-12-04T04:34:53;1.60;99.90
27540;DHT22;15906;52.046;4.724;2023-12-04T04:37:19;1.60;99.90
27540;DHT22;15906;52.046;4.724;2023-12-04T04:39:45;1.60;99.90
27540;DHT22;15906;52.046;4.724;2023-12-04T04:42:11;1.60;99.90
27540;DHT22;15906;52.046;4.724;2023-12-04T04:44:36;1.60;99.90
27540;DHT22;15906;52.046;4.724;2023-12-04T04:47:02;1.60;99.90
27540;DHT22;15906;52.046;4.724;2023-12-04T04:49:28;1.60;99.90
27540;DHT22;15906;52.046;4.724;2023-12-04T04:51:53;1.60;99.90
27540;DHT22;15906;52.046;4.724;2023-12-04T04:54:19;1.70;99.90
27540;DHT22;15906;52.046;4.724;2023-12-04T04:56:45;1.70;99.90
27540;DHT22;15906;52.046;4.724;2023-12-04T04:59:10;1.70;99.90
27540;DHT22;15906;52.046;4.724;2023-12-04T05:01:36;1.70;99.90
27540;DHT22;15906;52.046;4.724;2023-12-04T05:04:02;1.70;99.90
27540;DHT22;15906;52.046;4.724;2023-12-04T05:06:28;1.60;99.90
27540;DHT22;15906;52.046;4.724;2023-12-04T05:08:54;1.60;99.90
27540;DHT22;15906;52.046;4.724;2023-12-04T05:11:19;1.60;99.90
27540;DHT22;15906;52.046;4.724;2023-12-04T05:13:45;1.60;99.90
27540;DHT22;15906;52.046;4.724;2023-12-04T05:16:11;1.70;99.90
27540;DHT22;15906;52.046;4.724;2023-12-04T05:18:38;1.60;99.90
27540;DHT22;15906;52.046;4.724;2023-12-04T05:21:08;1.70;99.90
27540;DHT22;15906;52.046;4.724;2023-12-04T05:23:35;1.70;99.90
27540;DHT22;15906;52.046;4.724;2023-12-04T05:26:00;1.60;99.90
27540;DHT22;15906;52.046;4.724;2023-12-04T05:28:26;1.60;99.90
27540;DHT22;15906;52.046;4.724;2023-12-04T05:30:51;1.60;99.90
27540;DHT22;15906;52.046;4.724;2023-12-04T05:33:17;1.60;99.90
27540;DHT22;15906;52.046;4.724;2023-12-04T05:35:43;1.60;99.90
27540;DHT22;15906;52.046;4.724;2023-12-04T05:38:08;1.60;99.90
27540;DHT22;15906;52.046;4.724;2023-12-04T05:40:34;1.60;99.90
27540;DHT22;15906;52.046;4.724;2023-12-04T05:43:00;1.60;99.90
27540;DHT22;15906;52.046;4.724;2023-12-04T05:45:25;1.50;99.90
27540;DHT22;15906;52.046;4.724;2023-12-04T05:47:51;1.60;99.90
27540;DHT22;15906;52.046;4.724;2023-12-04T05:50:18;1.60;99.90
27540;DHT22;15906;52.046;4.724;2023-12-04T05:52:43;1.60;99.90
27540;DHT22;15906;52.046;4.724;2023-12-04T05:55:10;1.60;99.90
27540;DHT22;15906;52.046;4.724;2023-12-04T05:57:35;1.60;99.90
27540;DHT22;15906;52.046;4.724;2023-12-04T06:00:01;1.60;99.90
27540;DHT22;15906;52.046;4.724;2023-12-04T06:02:26;1.70;99.90
27540;DHT22;15906;52.046;4.724;2023-12-04T06:04:55;1.70;99.90
27540;DHT22;15906;52.046;4.724;2023-12-04T06:07:21;1.70;99.90
27540;DHT22;15906;52.046;4.724;2023-12-04T06:09:46;1.70;99.90
27540;DHT22;15906;52.046;4.724;2023-12-04T06:12:12;1.70;99.90
27540;DHT22;15906;52.046;4.724;2023-12-04T06:14:37;1.70;99.90
27540;DHT22;15906;52.046;4.724;2023-12-04T06:17:03;1.70;99.90
27540;DHT22;15906;52.046;4.724;2023-12-04T06:19:29;1.80;99.90
27540;DHT22;15906;52.046;4.724;2023-12-04T06:21:54;1.80;99.90
27540;DHT22;15906;52.046;4.724;2023-12-04T06:24:20;1.70;99.90
27540;DHT22;15906;52.046;4.724;2023-12-04T06:26:50;1.70;99.90
27540;DHT22;15906;52.046;4.724;2023-12-04T06:29:16;1.70;99.90
27540;DHT22;15906;52.046;4.724;2023-12-04T06:31:42;1.70;99.90
27540;DHT22;15906;52.046;4.724;2023-12-04T06:34:08;1.70;99.90
27540;DHT22;15906;52.046;4.724;2023-12-04T06:36:37;1.70;99.90
27540;DHT22;15906;52.046;4.724;2023-12-04T06:39:06;1.70;99.90
27540;DHT22;15906;52.046;4.724;2023-12-04T06:41:34;1.70;99.90
27540;DHT22;15906;52.046;4.724;2023-12-04T06:44:00;1.70;99.90
27540;DHT22;15906;52.046;4.724;2023-12-04T06:46:28;1.70;99.90
27540;DHT22;15906;52.046;4.724;2023-12-04T06:48:57;1.70;99.90
27540;DHT22;15906;52.046;4.724;2023-12-04T06:51:24;1.70;99.90
27540;DHT22;15906;52.046;4.724;2023-12-04T06:53:50;1.70;99.90
27540;DHT22;15906;52.046;4.724;2023-12-04T06:56:15;1.70;99.90
27540;DHT22;15906;52.046;4.724;2023-12-04T06:58:41;1.70;99.90
27540;DHT22;15906;52.046;4.724;2023-12-04T07:01:07;1.60;99.90
27540;DHT22;15906;52.046;4.724;2023-12-04T07:03:32;1.70;99.90
27540;DHT22;15906;52.046;4.724;2023-12-04T07:05:58;1.70;99.90
27540;DHT22;15906;52.046;4.724;2023-12-04T07:08:24;1.70;99.90
27540;DHT22;15906;52.046;4.724;2023-12-04T07:10:50;1.70;99.90
27540;DHT22;15906;52.046;4.724;2023-12-04T07:13:15;1.70;99.90
27540;DHT22;15906;52.046;4.724;2023-12-04T07:15:41;1.70;99.90
27540;DHT22;15906;52.046;4.724;2023-12-04T07:18:07;1.70;99.90
27540;DHT22;15906;52.046;4.724;2023-12-04T07:20:32;1.80;99.90
27540;DHT22;15906;52.046;4.724;2023-12-04T07:22:58;1.70;99.90
27540;DHT22;15906;52.046;4.724;2023-12-04T07:25:24;1.70;99.90
27540;DHT22;15906;52.046;4.724;2023-12-04T07:27:49;1.70;99.90
27540;DHT22;15906;52.046;4.724;2023-12-04T07:30:15;1.70;99.90
27540;DHT22;15906;52.046;4.724;2023-12-04T07:32:41;1.80;99.90
27540;DHT22;15906;52.046;4.724;2023-12-04T07:35:07;1.70;99.90
27540;DHT22;15906;52.046;4.724;2023-12-04T07:37:32;1.80;99.90
27540;DHT22;15906;52.046;4.724;2023-12-04T07:39:58;1.80;99.90
27540;DHT22;15906;52.046;4.724;2023-12-04T07:42:24;1.80;99.90
27540;DHT22;15906;52.046;4.724;2023-12-04T07:44:50;1.70;99.90
27540;DHT22;15906;52.046;4.724;2023-12-04T07:47:15;1.80;99.90
27540;DHT22;15906;52.046;4.724;2023-12-04T07:49:42;1.80;99.90
27540;DHT22;15906;52.046;4.724;2023-12-04T07:52:07;1.80;99.90
27540;DHT22;15906;52.046;4.724;2023-12-04T07:54:33;1.80;99.90
27540;DHT22;15906;52.046;4.724;2023-12-04T07:56:59;1.90;99.90
27540;DHT22;15906;52.046;4.724;2023-12-04T07:59:25;1.90;99.90
27540;DHT22;15906;52.046;4.724;2023-12-04T08:01:51;1.90;99.90
27540;DHT22;15906;52.046;4.724;2023-12-04T08:04:16;1.90;99.90
27540;DHT22;15906;52.046;4.724;2023-12-04T08:06:42;1.90;99.90
27540;DHT22;15906;52.046;4.724;2023-12-04T08:09:08;1.90;99.90
27540;DHT22;15906;52.046;4.724;2023-12-04T08:11:35;1.90;99.90
27540;DHT22;15906;52.046;4.724;2023-12-04T08:14:01;1.90;99.90
27540;DHT22;15906;52.046;4.724;2023-12-04T08:16:27;1.90;99.90
27540;DHT22;15906;52.046;4.724;2023-12-04T08:18:54;1.90;99.90
27540;DHT22;15906;52.046;4.724;2023-12-04T08:21:20;1.90;99.90
27540;DHT22;15906;52.046;4.724;2023-12-04T08:23:45;1.90;99.90
27540;DHT22;15906;52.046;4.724;2023-12-04T08:26:11;1.90;99.90
27540;DHT22;15906;52.046;4.724;2023-12-04T08:28:36;1.90;99.90
27540;DHT22;15906;52.046;4.724;2023-12-04T08:31:09;1.90;99.90
27540;DHT22;15906;52.046;4.724;2023-12-04T08:33:35;1.90;99.90
27540;DHT22;15906;52.046;4.724;2023-12-04T08:36:01;1.90;99.90
27540;DHT22;15906;52.046;4.724;2023-12-04T08:38:27;1.90;99.90
27540;DHT22;15906;52.046;4.724;2023-12-04T08:40:53;1.90;99.90
27540;DHT22;15906;52.046;4.724;2023-12-04T08:43:19;2.00;99.90
27540;DHT22;15906;52.046;4.724;2023-12-04T08:45:45;1.90;99.90
27540;DHT22;15906;52.046;4.724;2023-12-04T08:48:11;2.00;99.90
27540;DHT22;15906;52.046;4.724;2023-12-04T08:50:37;1.90;99.90
27540;DHT22;15906;52.046;4.724;2023-12-04T08:53:03;1.90;99.90
27540;DHT22;15906;52.046;4.724;2023-12-04T08:55:29;2.00;99.90
27540;DHT22;15906;52.046;4.724;2023-12-04T08:57:55;2.00;99.90
27540;DHT22;15906;52.046;4.724;2023-12-04T09:00:20;2.00;99.90
27540;DHT22;15906;52.046;4.724;2023-12-04T09:02:47;2.00;99.90
27540;DHT22;15906;52.046;4.724;2023-12-04T09:05:13;2.00;99.90
27540;DHT22;15906;52.046;4.724;2023-12-04T09:07:39;2.00;99.90
27540;DHT22;15906;52.046;4.724;2023-12-04T09:10:05;2.00;99.90
27540;DHT22;15906;52.046;4.724;2023-12-04T09:12:31;2.00;99.90
27540;DHT22;15906;52.046;4.724;2023-12-04T09:14:56;2.00;99.90
27540;DHT22;15906;52.046;4.724;2023-12-04T09:17:22;2.00;99.90
27540;DHT22;15906;52.046;4.724;2023-12-04T09:19:48;2.00;99.90
27540;DHT22;15906;52.046;4.724;2023-12-04T09:22:13;2.00;99.90
27540;DHT22;15906;52.046;4.724;2023-12-04T09:24:39;2.00;99.90
27540;DHT22;15906;52.046;4.724;2023-12-04T09:27:04;2.00;99.90
27540;DHT22;15906;52.046;4.724;2023-12-04T09:29:32;2.00;99.90
27540;DHT22;15906;52.046;4.724;2023-12-04T09:31:57;2.00;99.90
27540;DHT22;15906;52.046;4.724;2023-12-04T09:34:23;2.00;99.90
27540;DHT22;15906;52.046;4.724;2023-12-04T09:36:49;2.10;99.90
27540;DHT22;15906;52.046;4.724;2023-12-04T09:39:14;2.10;99.90
27540;DHT22;15906;52.046;4.724;2023-12-04T09:41:42;2.10;99.90
27540;DHT22;15906;52.046;4.724;2023-12-04T09:44:08;2.10;99.90
27540;DHT22;15906;52.046;4.724;2023-12-04T09:46:37;2.20;99.90
27540;DHT22;15906;52.046;4.724;2023-12-04T09:49:04;2.20;99.90
27540;DHT22;15906;52.046;4.724;2023-12-04T09:51:30;2.20;99.90
27540;DHT22;15906;52.046;4.724;2023-12-04T09:53:57;2.10;99.90
27540;DHT22;15906;52.046;4.724;2023-12-04T09:56:23;2.20;99.90
27540;DHT22;15906;52.046;4.724;2023-12-04T09:58:52;2.20;99.90
27540;DHT22;15906;52.046;4.724;2023-12-04T10:01:20;2.10;99.90
27540;DHT22;15906;52.046;4.724;2023-12-04T10:03:47;2.20;99.90
27540;DHT22;15906;52.046;4.724;2023-12-04T10:06:15;2.10;99.90
27540;DHT22;15906;52.046;4.724;2023-12-04T10:08:43;2.20;99.90
27540;DHT22;15906;52.046;4.724;2023-12-04T10:11:10;2.10;99.90
27540;DHT22;15906;52.046;4.724;2023-12-04T10:13:36;2.20;99.90
27540;DHT22;15906;52.046;4.724;2023-12-04T10:16:01;2.20;99.90
27540;DHT22;15906;52.046;4.724;2023-12-04T10:18:29;2.20;99.90
27540;DHT22;15906;52.046;4.724;2023-12-04T10:20:56;2.20;99.90
27540;DHT22;15906;52.046;4.724;2023-12-04T10:23:22;2.20;99.90
27540;DHT22;15906;52.046;4.724;2023-12-04T10:25:50;2.20;99.90
27540;DHT22;15906;52.046;4.724;2023-12-04T10:28:17;2.30;99.90
27540;DHT22;15906;52.046;4.724;2023-12-04T10:30:42;2.30;99.90
27540;DHT22;15906;52.046;4.724;2023-12-04T10:33:10;2.30;99.90
27540;DHT22;15906;52.046;4.724;2023-12-04T10:35:36;2.30;99.90
27540;DHT22;15906;52.046;4.724;2023-12-04T10:38:03;2.30;99.90
27540;DHT22;15906;52.046;4.724;2023-12-04T10:40:31;2.40;99.90
27540;DHT22;15906;52.046;4.724;2023-12-04T10:43:17;2.30;99.90
27540;DHT22;15906;52.046;4.724;2023-12-04T10:45:44;2.40;99.90
27540;DHT22;15906;52.046;4.724;2023-12-04T10:48:11;2.40;99.90
27540;DHT22;15906;52.046;4.724;2023-12-04T10:50:38;2.30;99.90
27540;DHT22;15906;52.046;4.724;2023-12-04T10:53:05;2.30;99.90
27540;DHT22;15906;52.046;4.724;2023-12-04T10:55:31;2.30;99.90
27540;DHT22;15906;52.046;4.724;2023-12-04T10:57:57;2.30;99.90
27540;DHT22;15906;52.046;4.724;2023-12-04T11:00:24;2.40;99.90
27540;DHT22;15906;52.046;4.724;2023-12-04T11:02:55;2.40;99.90
27540;DHT22;15906;52.046;4.724;2023-12-04T11:05:23;2.40;99.90
27540;DHT22;15906;52.046;4.724;2023-12-04T11:07:57;2.50;99.90
27540;DHT22;15906;52.046;4.724;2023-12-04T11:10:26;2.50;99.90
27540;DHT22;15906;52.046;4.724;2023-12-04T11:12:59;2.50;99.90
27540;DHT22;15906;52.046;4.724;2023-12-04T11:15:27;2.50;99.90
27540;DHT22;15906;52.046;4.724;2023-12-04T11:17:59;2.60;99.90
27540;DHT22;15906;52.046;4.724;2023-12-04T11:20:29;2.50;99.90
27540;DHT22;15906;52.046;4.724;2023-12-04T11:22:56;2.60;99.90
27540;DHT22;15906;52.046;4.724;2023-12-04T11:25:23;2.60;99.90
27540;DHT22;15906;52.046;4.724;2023-12-04T11:27:53;2.60;99.90
27540;DHT22;15906;52.046;4.724;2023-12-04T11:30:20;2.70;99.90
27540;DHT22;15906;52.046;4.724;2023-12-04T11:32:46;2.70;99.90
27540;DHT22;15906;52.046;4.724;2023-12-04T11:35:15;2.70;99.90
27540;DHT22;15906;52.046;4.724;2023-12-04T11:37:44;2.80;99.90
27540;DHT22;15906;52.046;4.724;2023-12-04T11:40:14;2.70;99.90
27540;DHT22;15906;52.046;4.724;2023-12-04T11:42:40;2.70;99.90
27540;DHT22;15906;52.046;4.724;2023-12-04T11:45:06;2.80;99.90
27540;DHT22;15906;52.046;4.724;2023-12-04T11:50:20;2.70;99.90
27540;DHT22;15906;52.046;4.724;2023-12-04T11:52:47;2.70;99.90
27540;DHT22;15906;52.046;4.724;2023-12-04T11:55:16;2.70;99.90
27540;DHT22;15906;52.046;4.724;2023-12-04T11:57:42;2.70;99.90
27540;DHT22;15906;52.046;4.724;2023-12-04T12:05:20;2.70;99.90
27540;DHT22;15906;52.046;4.724;2023-12-04T12:07:46;2.80;99.90
27540;DHT22;15906;52.046;4.724;2023-12-04T12:10:12;2.80;99.90
27540;DHT22;15906;52.046;4.724;2023-12-04T12:12:41;2.80;99.90
27540;DHT22;15906;52.046;4.724;2023-12-04T12:15:11;2.70;99.90
27540;DHT22;15906;52.046;4.724;2023-12-04T12:17:41;2.80;99.90
27540;DHT22;15906;52.046;4.724;2023-12-04T12:20:08;2.80;99.90
27540;DHT22;15906;52.046;4.724;2023-12-04T12:22:35;2.70;99.90
27540;DHT22;15906;52.046;4.724;2023-12-04T12:25:04;2.70;99.90
27540;DHT22;15906;52.046;4.724;2023-12-04T12:27:30;2.70;99.90
27540;DHT22;15906;52.046;4.724;2023-12-04T12:29:56;2.60;99.90
27540;DHT22;15906;52.046;4.724;2023-12-04T12:32:21;2.60;99.90
27540;DHT22;15906;52.046;4.724;2023-12-04T12:34:47;2.60;99.90
27540;DHT22;15906;52.046;4.724;2023-12-04T12:37:12;2.60;99.90
27540;DHT22;15906;52.046;4.724;2023-12-04T12:39:39;2.50;99.90
27540;DHT22;15906;52.046;4.724;2023-12-04T12:42:05;2.50;99.90
27540;DHT22;15906;52.046;4.724;2023-12-04T12:44:40;2.50;99.90
27540;DHT22;15906;52.046;4.724;2023-12-04T12:47:09;2.50;99.90
27540;DHT22;15906;52.046;4.724;2023-12-04T12:49:35;2.50;99.90
27540;DHT22;15906;52.046;4.724;2023-12-04T12:52:04;2.50;99.90
27540;DHT22;15906;52.046;4.724;2023-12-04T12:54:30;2.50;99.90
27540;DHT22;15906;52.046;4.724;2023-12-04T12:56:58;2.50;99.90
27540;DHT22;15906;52.046;4.724;2023-12-04T12:59:25;2.50;99.90
27540;DHT22;15906;52.046;4.724;2023-12-04T13:01:50;2.60;99.90
27540;DHT22;15906;52.046;4.724;2023-12-04T13:04:17;2.60;99.90
27540;DHT22;15906;52.046;4.724;2023-12-04T13:06:43;2.60;99.90
27540;DHT22;15906;52.046;4.724;2023-12-04T13:09:08;2.60;99.90
27540;DHT22;15906;52.046;4.724;2023-12-04T13:11:34;2.60;99.90
27540;DHT22;15906;52.046;4.724;2023-12-04T13:14:00;2.60;99.90
27540;DHT22;15906;52.046;4.724;2023-12-04T13:16:26;2.60;99.90
27540;DHT22;15906;52.046;4.724;2023-12-04T13:18:51;2.60;99.90
27540;DHT22;15906;52.046;4.724;2023-12-04T13:21:17;2.60;99.90
27540;DHT22;15906;52.046;4.724;2023-12-04T13:23:43;2.60;99.90
27540;DHT22;15906;52.046;4.724;2023-12-04T13:26:08;2.60;99.90
27540;DHT22;15906;52.046;4.724;2023-12-04T13:28:37;2.60;99.90
27540;DHT22;15906;52.046;4.724;2023-12-04T13:31:04;2.60;99.90
27540;DHT22;15906;52.046;4.724;2023-12-04T13:33:30;2.60;99.90
27540;DHT22;15906;52.046;4.724;2023-12-04T13:35:55;2.60;99.90
27540;DHT22;15906;52.046;4.724;2023-12-04T13:38:21;2.60;99.90
27540;DHT22;15906;52.046;4.724;2023-12-04T13:40:47;2.60;99.90
27540;DHT22;15906;52.046;4.724;2023-12-04T13:43:26;2.70;99.90
27540;DHT22;15906;52.046;4.724;2023-12-04T13:46:10;2.70;99.90
27540;DHT22;15906;52.046;4.724;2023-12-04T13:48:36;2.70;99.90
27540;DHT22;15906;52.046;4.724;2023-12-04T13:51:05;2.70;99.90
27540;DHT22;15906;52.046;4.724;2023-12-04T13:53:30;2.70;99.90
27540;DHT22;15906;52.046;4.724;2023-12-04T13:55:56;2.60;99.90
27540;DHT22;15906;52.046;4.724;2023-12-04T13:58:25;2.70;99.90
27540;DHT22;15906;52.046;4.724;2023-12-04T14:01:11;2.60;99.90
27540;DHT22;15906;52.046;4.724;2023-12-04T14:03:41;2.60;99.90
27540;DHT22;15906;52.046;4.724;2023-12-04T14:06:07;2.60;99.90
27540;DHT22;15906;52.046;4.724;2023-12-04T14:08:33;2.60;99.90
27540;DHT22;15906;52.046;4.724;2023-12-04T14:10:59;2.60;99.90
27540;DHT22;15906;52.046;4.724;2023-12-04T14:13:24;2.60;99.90
27540;DHT22;15906;52.046;4.724;2023-12-04T14:15:50;2.60;99.90
27540;DHT22;15906;52.046;4.724;2023-12-04T14:18:15;2.60;99.90
27540;DHT22;15906;52.046;4.724;2023-12-04T14:20:41;2.40;99.90
27540;DHT22;15906;52.046;4.724;2023-12-04T14:23:06;2.50;99.90
27540;DHT22;15906;52.046;4.724;2023-12-04T14:25:32;2.50;99.90
27540;DHT22;15906;52.046;4.724;2023-12-04T14:27:57;2.50;99.90
27540;DHT22;15906;52.046;4.724;2023-12-04T14:30:23;2.50;99.90
27540;DHT22;15906;52.046;4.724;2023-12-04T14:32:48;2.50;99.90
27540;DHT22;15906;52.046;4.724;2023-12-04T14:35:14;2.50;99.90
27540;DHT22;15906;52.046;4.724;2023-12-04T14:37:40;2.50;99.90
27540;DHT22;15906;52.046;4.724;2023-12-04T14:40:06;2.50;99.90
27540;DHT22;15906;52.046;4.724;2023-12-04T14:42:31;2.40;99.90
27540;DHT22;15906;52.046;4.724;2023-12-04T14:44:57;2.40;99.90
27540;DHT22;15906;52.046;4.724;2023-12-04T14:47:22;2.40;99.90
27540;DHT22;15906;52.046;4.724;2023-12-04T14:49:48;2.40;99.90
27540;DHT22;15906;52.046;4.724;2023-12-04T14:52:19;2.40;99.90
27540;DHT22;15906;52.046;4.724;2023-12-04T14:54:47;2.40;99.90
27540;DHT22;15906;52.046;4.724;2023-12-04T14:57:42;2.40;99.90
27540;DHT22;15906;52.046;4.724;2023-12-04T15:00:27;2.40;99.90
27540;DHT22;15906;52.046;4.724;2023-12-04T15:03:11;2.30;99.90
27540;DHT22;15906;52.046;4.724;2023-12-04T15:05:43;2.30;99.90
27540;DHT22;15906;52.046;4.724;2023-12-04T15:08:27;2.30;99.90
27540;DHT22;15906;52.046;4.724;2023-12-04T15:11:19;2.30;99.90
27540;DHT22;15906;52.046;4.724;2023-12-04T15:13:50;2.30;99.90
27540;DHT22;15906;52.046;4.724;2023-12-04T15:16:36;2.30;99.90
27540;DHT22;15906;52.046;4.724;2023-12-04T15:19:09;2.30;99.90
27540;DHT22;15906;52.046;4.724;2023-12-04T15:21:40;2.30;99.90
27540;DHT22;15906;52.046;4.724;2023-12-04T15:24:06;2.30;99.90
27540;DHT22;15906;52.046;4.724;2023-12-04T15:26:32;2.20;99.90
27540;DHT22;15906;52.046;4.724;2023-12-04T15:28:58;2.30;99.90
27540;DHT22;15906;52.046;4.724;2023-12-04T15:31:24;2.30;99.90
27540;DHT22;15906;52.046;4.724;2023-12-04T15:33:49;2.20;99.90
27540;DHT22;15906;52.046;4.724;2023-12-04T15:36:15;2.20;99.90
27540;DHT22;15906;52.046;4.724;2023-12-04T15:38:40;2.20;99.90
27540;DHT22;15906;52.046;4.724;2023-12-04T15:41:06;2.20;99.90
27540;DHT22;15906;52.046;4.724;2023-12-04T15:43:32;2.30;99.90
27540;DHT22;15906;52.046;4.724;2023-12-04T15:45:58;2.30;99.90
27540;DHT22;15906;52.046;4.724;2023-12-04T15:48:23;2.30;99.90